sensor_id;sensor_type;location;lat;lon;timestamp;temperature;humidity
65371;DHT22;58485;59.934;30.352;2022-07-29T00:00:22;25.89;51.22
65371;DHT22;58485;59.934;30.352;2022-07-29T00:01:14;25.91;51.23
65371;DHT22;58485;59.934;30.352;2022-07-29T00:02:07;25.90;51.24
65371;DHT22;58485;59.934;30.352;2022-07-29T00:02:58;25.90;51.23
65371;DHT22;58485;59.934;30.352;2022-07-29T00:03:50;25.90;51.24
65371;DHT22;58485;59.934;30.352;2022-07-29T00:04:42;25.91;51.23
65371;DHT22;58485;59.934;30.352;2022-07-29T00:05:34;25.89;51.23
65371;DHT22;58485;59.934;30.352;2022-07-29T00:06:25;25.89;51.21
65371;DHT22;58485;59.934;30.352;2022-07-29T00:07:17;25.89;51.26
65371;DHT22;58485;59.934;30.352;2022-07-29T00:08:09;25.89;51.24
65371;DHT22;58485;59.934;30.352;2022-07-29T00:09:01;25.87;51.27
65371;DHT22;58485;59.934;30.352;2022-07-29T00:09:53;25.87;51.29
65371;DHT22;58485;59.934;30.352;2022-07-29T00:10:45;25.87;51.33
65371;DHT22;58485;59.934;30.352;2022-07-29T00:11:36;25.86;51.30
65371;DHT22;58485;59.934;30.352;2022-07-29T00:12:29;25.86;51.32
65371;DHT22;58485;59.934;30.352;2022-07-29T00:13:20;25.84;51.31
65371;DHT22;58485;59.934;30.352;2022-07-29T00:14:13;25.84;51.31
65371;DHT22;58485;59.934;30.352;2022-07-29T00:15:05;25.84;51.33
65371;DHT22;58485;59.934;30.352;2022-07-29T00:15:58;25.83;51.39
65371;DHT22;58485;59.934;30.352;2022-07-29T00:16:49;25.81;51.44
65371;DHT22;58485;59.934;30.352;2022-07-29T00:17:41;25.82;51.42
65371;DHT22;58485;59.934;30.352;2022-07-29T00:18:33;25.83;51.42
65371;DHT22;58485;59.934;30.352;2022-07-29T00:19:25;25.82;51.43
65371;DHT22;58485;59.934;30.352;2022-07-29T00:20:16;25.83;51.45
65371;DHT22;58485;59.934;30.352;2022-07-29T00:21:08;25.82;51.43
65371;DHT22;58485;59.934;30.352;2022-07-29T00:22:00;25.82;51.45
65371;DHT22;58485;59.934;30.352;2022-07-29T00:22:52;25.81;51.49
65371;DHT22;58485;59.934;30.352;2022-07-29T00:23:43;25.81;51.52
65371;DHT22;58485;59.934;30.352;2022-07-29T00:24:36;25.80;51.51
65371;DHT22;58485;59.934;30.352;2022-07-29T00:25:27;25.80;51.55
65371;DHT22;58485;59.934;30.352;2022-07-29T00:26:19;25.80;51.56
65371;DHT22;58485;59.934;30.352;2022-07-29T00:27:10;25.79;51.57
65371;DHT22;58485;59.934;30.352;2022-07-29T00:28:03;25.79;51.57
65371;DHT22;58485;59.934;30.352;2022-07-29T00:28:54;25.80;51.62
65371;DHT22;58485;59.934;30.352;2022-07-29T00:29:48;25.81;51.58
65371;DHT22;58485;59.934;30.352;2022-07-29T00:30:39;25.80;51.59
65371;DHT22;58485;59.934;30.352;2022-07-29T00:31:33;25.79;51.63
65371;DHT22;58485;59.934;30.352;2022-07-29T00:32:24;25.79;51.69
65371;DHT22;58485;59.934;30.352;2022-07-29T00:33:16;25.78;51.67
65371;DHT22;58485;59.934;30.352;2022-07-29T00:34:08;25.79;51.69
65371;DHT22;58485;59.934;30.352;2022-07-29T00:35:20;25.78;51.66
65371;DHT22;58485;59.934;30.352;2022-07-29T00:36:29;25.76;51.72
65371;DHT22;58485;59.934;30.352;2022-07-29T00:37:21;25.77;51.75
65371;DHT22;58485;59.934;30.352;2022-07-29T00:38:13;25.77;51.74
65371;DHT22;58485;59.934;30.352;2022-07-29T00:39:06;25.78;51.74
65371;DHT22;58485;59.934;30.352;2022-07-29T00:39:57;25.79;51.75
65371;DHT22;58485;59.934;30.352;2022-07-29T00:40:49;25.78;51.73
65371;DHT22;58485;59.934;30.352;2022-07-29T00:41:41;25.78;51.73
65371;DHT22;58485;59.934;30.352;2022-07-29T00:42:41;25.78;51.70
65371;DHT22;58485;59.934;30.352;2022-07-29T00:43:33;25.77;51.77
65371;DHT22;58485;59.934;30.352;2022-07-29T00:44:25;25.77;51.79
65371;DHT22;58485;59.934;30.352;2022-07-29T00:45:19;25.77;51.73
65371;DHT22;58485;59.934;30.352;2022-07-29T00:46:11;25.76;51.80
65371;DHT22;58485;59.934;30.352;2022-07-29T00:47:03;25.74;51.82
65371;DHT22;58485;59.934;30.352;2022-07-29T00:47:55;25.75;51.85
65371;DHT22;58485;59.934;30.352;2022-07-29T00:48:46;25.74;51.85
65371;DHT22;58485;59.934;30.352;2022-07-29T00:49:40;25.74;51.86
65371;DHT22;58485;59.934;30.352;2022-07-29T00:50:32;25.73;51.82
65371;DHT22;58485;59.934;30.352;2022-07-29T00:51:25;25.73;51.87
65371;DHT22;58485;59.934;30.352;2022-07-29T00:52:17;25.73;51.87
65371;DHT22;58485;59.934;30.352;2022-07-29T00:53:11;25.74;51.85
65371;DHT22;58485;59.934;30.352;2022-07-29T00:54:03;25.73;51.85
65371;DHT22;58485;59.934;30.352;2022-07-29T00:54:56;25.74;51.89
65371;DHT22;58485;59.934;30.352;2022-07-29T00:55:47;25.73;51.91
65371;DHT22;58485;59.934;30.352;2022-07-29T00:56:39;25.72;51.95
65371;DHT22;58485;59.934;30.352;2022-07-29T00:57:31;25.72;51.96
65371;DHT22;58485;59.934;30.352;2022-07-29T00:58:24;25.72;51.96
65371;DHT22;58485;59.934;30.352;2022-07-29T00:59:15;25.71;51.93
65371;DHT22;58485;59.934;30.352;2022-07-29T01:00:09;25.71;51.95
65371;DHT22;58485;59.934;30.352;2022-07-29T01:01:03;25.72;51.91
65371;DHT22;58485;59.934;30.352;2022-07-29T01:01:56;25.71;51.99
65371;DHT22;58485;59.934;30.352;2022-07-29T01:02:47;25.71;52.01
65371;DHT22;58485;59.934;30.352;2022-07-29T01:03:40;25.71;52.00
65371;DHT22;58485;59.934;30.352;2022-07-29T01:04:31;25.71;52.00
65371;DHT22;58485;59.934;30.352;2022-07-29T01:05:26;25.71;52.00
65371;DHT22;58485;59.934;30.352;2022-07-29T01:06:19;25.71;51.98
65371;DHT22;58485;59.934;30.352;2022-07-29T01:07:11;25.72;51.99
65371;DHT22;58485;59.934;30.352;2022-07-29T01:08:04;25.71;51.97
65371;DHT22;58485;59.934;30.352;2022-07-29T01:08:56;25.69;51.95
65371;DHT22;58485;59.934;30.352;2022-07-29T01:09:49;25.67;51.98
65371;DHT22;58485;59.934;30.352;2022-07-29T01:10:41;25.69;52.00
65371;DHT22;58485;59.934;30.352;2022-07-29T01:11:34;25.68;51.97
65371;DHT22;58485;59.934;30.352;2022-07-29T01:12:28;25.68;51.96
65371;DHT22;58485;59.934;30.352;2022-07-29T01:13:23;25.66;52.04
65371;DHT22;58485;59.934;30.352;2022-07-29T01:14:16;25.66;52.05
65371;DHT22;58485;59.934;30.352;2022-07-29T01:15:09;25.66;52.01
65371;DHT22;58485;59.934;30.352;2022-07-29T01:16:07;25.66;51.95
65371;DHT22;58485;59.934;30.352;2022-07-29T01:17:10;25.66;52.02
65371;DHT22;58485;59.934;30.352;2022-07-29T01:18:08;25.66;52.04
65371;DHT22;58485;59.934;30.352;2022-07-29T01:19:39;25.65;51.79
65371;DHT22;58485;59.934;30.352;2022-07-29T01:21:02;25.63;52.01
65371;DHT22;58485;59.934;30.352;2022-07-29T01:22:26;25.61;51.91
65371;DHT22;58485;59.934;30.352;2022-07-29T01:23:48;25.59;51.87
65371;DHT22;58485;59.934;30.352;2022-07-29T01:25:20;25.59;52.11
65371;DHT22;58485;59.934;30.352;2022-07-29T01:26:33;25.57;52.04
65371;DHT22;58485;59.934;30.352;2022-07-29T01:27:45;25.58;52.17
65371;DHT22;58485;59.934;30.352;2022-07-29T01:29:00;25.57;51.98
65371;DHT22;58485;59.934;30.352;2022-07-29T01:29:55;25.59;52.07
65371;DHT22;58485;59.934;30.352;2022-07-29T01:30:51;25.58;51.88
65371;DHT22;58485;59.934;30.352;2022-07-29T01:31:46;25.58;51.88
65371;DHT22;58485;59.934;30.352;2022-07-29T01:32:41;25.59;51.92
65371;DHT22;58485;59.934;30.352;2022-07-29T01:33:38;25.59;51.84
65371;DHT22;58485;59.934;30.352;2022-07-29T01:34:47;25.59;51.82
65371;DHT22;58485;59.934;30.352;2022-07-29T01:35:41;25.59;51.85
65371;DHT22;58485;59.934;30.352;2022-07-29T01:36:40;25.59;51.84
65371;DHT22;58485;59.934;30.352;2022-07-29T01:37:39;25.60;51.59
65371;DHT22;58485;59.934;30.352;2022-07-29T01:38:36;25.59;51.75
65371;DHT22;58485;59.934;30.352;2022-07-29T01:39:31;25.59;51.64
65371;DHT22;58485;59.934;30.352;2022-07-29T01:40:28;25.60;51.53
65371;DHT22;58485;59.934;30.352;2022-07-29T01:41:26;25.59;51.57
65371;DHT22;58485;59.934;30.352;2022-07-29T01:42:24;25.58;51.55
65371;DHT22;58485;59.934;30.352;2022-07-29T01:43:23;25.59;51.47
65371;DHT22;58485;59.934;30.352;2022-07-29T01:44:23;25.59;51.46
65371;DHT22;58485;59.934;30.352;2022-07-29T01:45:23;25.59;51.42
65371;DHT22;58485;59.934;30.352;2022-07-29T01:46:21;25.58;51.34
65371;DHT22;58485;59.934;30.352;2022-07-29T01:47:17;25.56;51.08
65371;DHT22;58485;59.934;30.352;2022-07-29T01:48:14;25.54;51.53
65371;DHT22;58485;59.934;30.352;2022-07-29T01:49:10;25.52;51.40
65371;DHT22;58485;59.934;30.352;2022-07-29T01:50:05;25.53;51.42
65371;DHT22;58485;59.934;30.352;2022-07-29T01:51:04;25.52;51.33
65371;DHT22;58485;59.934;30.352;2022-07-29T01:52:03;25.53;51.40
65371;DHT22;58485;59.934;30.352;2022-07-29T01:53:00;25.52;51.37
65371;DHT22;58485;59.934;30.352;2022-07-29T01:53:57;25.52;51.36
65371;DHT22;58485;59.934;30.352;2022-07-29T01:55:02;25.53;51.27
65371;DHT22;58485;59.934;30.352;2022-07-29T01:55:57;25.53;51.39
65371;DHT22;58485;59.934;30.352;2022-07-29T01:56:53;25.53;51.33
65371;DHT22;58485;59.934;30.352;2022-07-29T01:57:48;25.52;51.33
65371;DHT22;58485;59.934;30.352;2022-07-29T01:58:41;25.54;51.27
65371;DHT22;58485;59.934;30.352;2022-07-29T01:59:36;25.56;51.16
65371;DHT22;58485;59.934;30.352;2022-07-29T02:00:31;25.54;51.21
65371;DHT22;58485;59.934;30.352;2022-07-29T02:01:24;25.54;51.29
65371;DHT22;58485;59.934;30.352;2022-07-29T02:02:18;25.54;51.28
65371;DHT22;58485;59.934;30.352;2022-07-29T02:03:13;25.53;51.19
65371;DHT22;58485;59.934;30.352;2022-07-29T02:04:07;25.53;51.14
65371;DHT22;58485;59.934;30.352;2022-07-29T02:05:02;25.54;51.21
65371;DHT22;58485;59.934;30.352;2022-07-29T02:05:55;25.54;51.20
65371;DHT22;58485;59.934;30.352;2022-07-29T02:06:49;25.54;51.12
65371;DHT22;58485;59.934;30.352;2022-07-29T02:07:44;25.53;51.17
65371;DHT22;58485;59.934;30.352;2022-07-29T02:08:38;25.53;51.09
65371;DHT22;58485;59.934;30.352;2022-07-29T02:09:33;25.54;51.13
65371;DHT22;58485;59.934;30.352;2022-07-29T02:10:28;25.54;51.05
65371;DHT22;58485;59.934;30.352;2022-07-29T02:11:22;25.54;51.09
65371;DHT22;58485;59.934;30.352;2022-07-29T02:12:14;25.54;51.02
65371;DHT22;58485;59.934;30.352;2022-07-29T02:13:09;25.53;51.07
65371;DHT22;58485;59.934;30.352;2022-07-29T02:14:03;25.56;50.97
65371;DHT22;58485;59.934;30.352;2022-07-29T02:15:01;25.53;50.95
65371;DHT22;58485;59.934;30.352;2022-07-29T02:15:55;25.54;50.97
65371;DHT22;58485;59.934;30.352;2022-07-29T02:16:52;25.53;50.98
65371;DHT22;58485;59.934;30.352;2022-07-29T02:17:49;25.53;51.01
65371;DHT22;58485;59.934;30.352;2022-07-29T02:18:44;25.53;51.08
65371;DHT22;58485;59.934;30.352;2022-07-29T02:19:37;25.53;51.03
65371;DHT22;58485;59.934;30.352;2022-07-29T02:20:30;25.53;51.08
65371;DHT22;58485;59.934;30.352;2022-07-29T02:21:24;25.53;51.01
65371;DHT22;58485;59.934;30.352;2022-07-29T02:22:16;25.54;51.02
65371;DHT22;58485;59.934;30.352;2022-07-29T02:23:11;25.53;51.06
65371;DHT22;58485;59.934;30.352;2022-07-29T02:24:05;25.54;51.04
65371;DHT22;58485;59.934;30.352;2022-07-29T02:24:58;25.54;51.02
65371;DHT22;58485;59.934;30.352;2022-07-29T02:25:53;25.54;51.04
65371;DHT22;58485;59.934;30.352;2022-07-29T02:26:47;25.52;51.08
65371;DHT22;58485;59.934;30.352;2022-07-29T02:27:41;25.53;51.00
65371;DHT22;58485;59.934;30.352;2022-07-29T02:28:35;25.52;51.01
65371;DHT22;58485;59.934;30.352;2022-07-29T02:29:27;25.53;51.04
65371;DHT22;58485;59.934;30.352;2022-07-29T02:30:22;25.54;50.93
65371;DHT22;58485;59.934;30.352;2022-07-29T02:31:14;25.53;51.07
65371;DHT22;58485;59.934;30.352;2022-07-29T02:32:10;25.51;51.04
65371;DHT22;58485;59.934;30.352;2022-07-29T02:33:03;25.51;51.00
65371;DHT22;58485;59.934;30.352;2022-07-29T02:33:56;25.51;51.08
65371;DHT22;58485;59.934;30.352;2022-07-29T02:34:48;25.52;51.07
65371;DHT22;58485;59.934;30.352;2022-07-29T02:35:43;25.51;51.01
65371;DHT22;58485;59.934;30.352;2022-07-29T02:36:36;25.50;50.98
65371;DHT22;58485;59.934;30.352;2022-07-29T02:37:29;25.50;50.95
65371;DHT22;58485;59.934;30.352;2022-07-29T02:38:22;25.51;51.00
65371;DHT22;58485;59.934;30.352;2022-07-29T02:39:34;25.51;51.02
65371;DHT22;58485;59.934;30.352;2022-07-29T02:40:26;25.51;50.98
65371;DHT22;58485;59.934;30.352;2022-07-29T02:41:20;25.51;50.94
65371;DHT22;58485;59.934;30.352;2022-07-29T02:42:16;25.51;51.01
65371;DHT22;58485;59.934;30.352;2022-07-29T02:43:08;25.50;51.01
65371;DHT22;58485;59.934;30.352;2022-07-29T02:44:06;25.50;50.98
65371;DHT22;58485;59.934;30.352;2022-07-29T02:45:00;25.49;50.94
65371;DHT22;58485;59.934;30.352;2022-07-29T02:45:54;25.49;50.94
65371;DHT22;58485;59.934;30.352;2022-07-29T02:46:50;25.49;51.01
65371;DHT22;58485;59.934;30.352;2022-07-29T02:47:47;25.48;50.95
65371;DHT22;58485;59.934;30.352;2022-07-29T02:48:46;25.48;50.85
65371;DHT22;58485;59.934;30.352;2022-07-29T02:49:47;25.47;50.99
65371;DHT22;58485;59.934;30.352;2022-07-29T02:50:47;25.47;50.93
65371;DHT22;58485;59.934;30.352;2022-07-29T02:51:45;25.48;50.92
65371;DHT22;58485;59.934;30.352;2022-07-29T02:52:41;25.48;50.82
65371;DHT22;58485;59.934;30.352;2022-07-29T02:53:37;25.48;50.90
65371;DHT22;58485;59.934;30.352;2022-07-29T02:54:33;25.48;50.89
65371;DHT22;58485;59.934;30.352;2022-07-29T02:55:32;25.47;50.87
65371;DHT22;58485;59.934;30.352;2022-07-29T02:56:27;25.48;50.92
65371;DHT22;58485;59.934;30.352;2022-07-29T02:57:22;25.46;50.85
65371;DHT22;58485;59.934;30.352;2022-07-29T02:58:23;25.45;50.86
65371;DHT22;58485;59.934;30.352;2022-07-29T02:59:23;25.44;50.86
65371;DHT22;58485;59.934;30.352;2022-07-29T03:00:17;25.44;50.99
65371;DHT22;58485;59.934;30.352;2022-07-29T03:01:12;25.45;50.87
65371;DHT22;58485;59.934;30.352;2022-07-29T03:02:06;25.45;50.89
65371;DHT22;58485;59.934;30.352;2022-07-29T03:03:03;25.43;50.85
65371;DHT22;58485;59.934;30.352;2022-07-29T03:03:56;25.45;50.89
65371;DHT22;58485;59.934;30.352;2022-07-29T03:04:49;25.44;50.82
65371;DHT22;58485;59.934;30.352;2022-07-29T03:05:41;25.45;50.83
65371;DHT22;58485;59.934;30.352;2022-07-29T03:06:34;25.44;50.87
65371;DHT22;58485;59.934;30.352;2022-07-29T03:07:26;25.45;50.86
65371;DHT22;58485;59.934;30.352;2022-07-29T03:08:19;25.46;50.85
65371;DHT22;58485;59.934;30.352;2022-07-29T03:09:12;25.45;50.82
65371;DHT22;58485;59.934;30.352;2022-07-29T03:10:06;25.45;50.74
65371;DHT22;58485;59.934;30.352;2022-07-29T03:10:59;25.45;50.76
65371;DHT22;58485;59.934;30.352;2022-07-29T03:11:52;25.45;50.83
65371;DHT22;58485;59.934;30.352;2022-07-29T03:12:45;25.44;50.83
65371;DHT22;58485;59.934;30.352;2022-07-29T03:13:38;25.44;50.80
65371;DHT22;58485;59.934;30.352;2022-07-29T03:14:30;25.44;50.78
65371;DHT22;58485;59.934;30.352;2022-07-29T03:15:23;25.45;50.78
65371;DHT22;58485;59.934;30.352;2022-07-29T03:16:18;25.44;50.82
65371;DHT22;58485;59.934;30.352;2022-07-29T03:17:11;25.43;50.82
65371;DHT22;58485;59.934;30.352;2022-07-29T03:18:03;25.43;50.82
65371;DHT22;58485;59.934;30.352;2022-07-29T03:18:57;25.43;50.76
65371;DHT22;58485;59.934;30.352;2022-07-29T03:19:49;25.43;50.82
65371;DHT22;58485;59.934;30.352;2022-07-29T03:20:42;25.44;50.85
65371;DHT22;58485;59.934;30.352;2022-07-29T03:21:33;25.42;50.81
65371;DHT22;58485;59.934;30.352;2022-07-29T03:22:25;25.43;50.82
65371;DHT22;58485;59.934;30.352;2022-07-29T03:23:18;25.43;50.79
65371;DHT22;58485;59.934;30.352;2022-07-29T03:24:10;25.43;50.83
65371;DHT22;58485;59.934;30.352;2022-07-29T03:25:08;25.43;50.65
65371;DHT22;58485;59.934;30.352;2022-07-29T03:25:59;25.43;50.79
65371;DHT22;58485;59.934;30.352;2022-07-29T03:26:52;25.43;50.79
65371;DHT22;58485;59.934;30.352;2022-07-29T03:27:44;25.43;50.75
65371;DHT22;58485;59.934;30.352;2022-07-29T03:28:36;25.45;50.76
65371;DHT22;58485;59.934;30.352;2022-07-29T03:29:28;25.44;50.71
65371;DHT22;58485;59.934;30.352;2022-07-29T03:30:20;25.44;50.79
65371;DHT22;58485;59.934;30.352;2022-07-29T03:31:12;25.44;50.77
65371;DHT22;58485;59.934;30.352;2022-07-29T03:32:06;25.43;50.64
65371;DHT22;58485;59.934;30.352;2022-07-29T03:32:57;25.44;50.64
65371;DHT22;58485;59.934;30.352;2022-07-29T03:33:49;25.43;50.62
65371;DHT22;58485;59.934;30.352;2022-07-29T03:34:41;25.44;50.66
65371;DHT22;58485;59.934;30.352;2022-07-29T03:35:33;25.45;50.64
65371;DHT22;58485;59.934;30.352;2022-07-29T03:36:24;25.44;50.63
65371;DHT22;58485;59.934;30.352;2022-07-29T03:37:16;25.45;50.59
65371;DHT22;58485;59.934;30.352;2022-07-29T03:38:07;25.44;50.60
65371;DHT22;58485;59.934;30.352;2022-07-29T03:39:00;25.44;50.58
65371;DHT22;58485;59.934;30.352;2022-07-29T03:39:55;25.43;50.53
65371;DHT22;58485;59.934;30.352;2022-07-29T03:40:53;25.43;50.41
65371;DHT22;58485;59.934;30.352;2022-07-29T03:41:48;25.42;50.51
65371;DHT22;58485;59.934;30.352;2022-07-29T03:42:43;25.42;50.51
65371;DHT22;58485;59.934;30.352;2022-07-29T03:43:37;25.44;50.44
65371;DHT22;58485;59.934;30.352;2022-07-29T03:44:31;25.43;50.52
65371;DHT22;58485;59.934;30.352;2022-07-29T03:45:23;25.42;50.52
65371;DHT22;58485;59.934;30.352;2022-07-29T03:46:17;25.40;50.53
65371;DHT22;58485;59.934;30.352;2022-07-29T03:47:13;25.39;50.55
65371;DHT22;58485;59.934;30.352;2022-07-29T03:48:08;25.38;50.47
65371;DHT22;58485;59.934;30.352;2022-07-29T03:49:03;25.39;50.53
65371;DHT22;58485;59.934;30.352;2022-07-29T03:50:02;25.39;50.40
65371;DHT22;58485;59.934;30.352;2022-07-29T03:50:56;25.39;50.53
65371;DHT22;58485;59.934;30.352;2022-07-29T03:51:48;25.38;50.50
65371;DHT22;58485;59.934;30.352;2022-07-29T03:52:40;25.37;50.52
65371;DHT22;58485;59.934;30.352;2022-07-29T03:53:33;25.37;50.53
65371;DHT22;58485;59.934;30.352;2022-07-29T03:54:25;25.38;50.53
65371;DHT22;58485;59.934;30.352;2022-07-29T03:55:18;25.38;50.55
65371;DHT22;58485;59.934;30.352;2022-07-29T03:56:10;25.39;50.56
65371;DHT22;58485;59.934;30.352;2022-07-29T03:57:07;25.39;50.51
65371;DHT22;58485;59.934;30.352;2022-07-29T03:57:59;25.37;50.46
65371;DHT22;58485;59.934;30.352;2022-07-29T03:58:53;25.39;50.45
65371;DHT22;58485;59.934;30.352;2022-07-29T03:59:45;25.38;50.46
65371;DHT22;58485;59.934;30.352;2022-07-29T04:00:38;25.38;50.47
65371;DHT22;58485;59.934;30.352;2022-07-29T04:01:32;25.37;50.48
65371;DHT22;58485;59.934;30.352;2022-07-29T04:02:26;25.37;50.34
65371;DHT22;58485;59.934;30.352;2022-07-29T04:03:18;25.36;50.45
65371;DHT22;58485;59.934;30.352;2022-07-29T04:04:11;25.37;50.41
65371;DHT22;58485;59.934;30.352;2022-07-29T04:05:02;25.36;50.50
65371;DHT22;58485;59.934;30.352;2022-07-29T04:05:59;25.35;50.30
65371;DHT22;58485;59.934;30.352;2022-07-29T04:06:51;25.35;50.54
65371;DHT22;58485;59.934;30.352;2022-07-29T04:07:44;25.36;50.53
65371;DHT22;58485;59.934;30.352;2022-07-29T04:08:35;25.35;50.56
65371;DHT22;58485;59.934;30.352;2022-07-29T04:09:28;25.36;50.52
65371;DHT22;58485;59.934;30.352;2022-07-29T04:10:19;25.35;50.49
65371;DHT22;58485;59.934;30.352;2022-07-29T04:11:12;25.35;50.43
65371;DHT22;58485;59.934;30.352;2022-07-29T04:12:04;25.34;50.51
65371;DHT22;58485;59.934;30.352;2022-07-29T04:12:56;25.35;50.52
65371;DHT22;58485;59.934;30.352;2022-07-29T04:13:48;25.35;50.56
65371;DHT22;58485;59.934;30.352;2022-07-29T04:14:40;25.35;50.57
65371;DHT22;58485;59.934;30.352;2022-07-29T04:15:31;25.34;50.56
65371;DHT22;58485;59.934;30.352;2022-07-29T04:16:23;25.34;50.59
65371;DHT22;58485;59.934;30.352;2022-07-29T04:17:14;25.34;50.52
65371;DHT22;58485;59.934;30.352;2022-07-29T04:18:08;25.33;50.57
65371;DHT22;58485;59.934;30.352;2022-07-29T04:19:00;25.33;50.58
65371;DHT22;58485;59.934;30.352;2022-07-29T04:19:52;25.33;50.61
65371;DHT22;58485;59.934;30.352;2022-07-29T04:20:44;25.34;50.58
65371;DHT22;58485;59.934;30.352;2022-07-29T04:21:37;25.34;50.61
65371;DHT22;58485;59.934;30.352;2022-07-29T04:22:28;25.33;50.50
65371;DHT22;58485;59.934;30.352;2022-07-29T04:23:21;25.34;50.50
65371;DHT22;58485;59.934;30.352;2022-07-29T04:24:12;25.33;50.55
65371;DHT22;58485;59.934;30.352;2022-07-29T04:25:05;25.33;50.58
65371;DHT22;58485;59.934;30.352;2022-07-29T04:25:56;25.34;50.59
65371;DHT22;58485;59.934;30.352;2022-07-29T04:26:49;25.34;50.61
65371;DHT22;58485;59.934;30.352;2022-07-29T04:27:40;25.33;50.60
65371;DHT22;58485;59.934;30.352;2022-07-29T04:28:50;25.30;50.69
65371;DHT22;58485;59.934;30.352;2022-07-29T04:29:41;25.30;50.63
65371;DHT22;58485;59.934;30.352;2022-07-29T04:30:34;25.30;50.56
65371;DHT22;58485;59.934;30.352;2022-07-29T04:31:26;25.31;50.60
65371;DHT22;58485;59.934;30.352;2022-07-29T04:32:18;25.29;50.63
65371;DHT22;58485;59.934;30.352;2022-07-29T04:33:11;25.30;50.56
65371;DHT22;58485;59.934;30.352;2022-07-29T04:34:03;25.29;50.62
65371;DHT22;58485;59.934;30.352;2022-07-29T04:34:54;25.30;50.65
65371;DHT22;58485;59.934;30.352;2022-07-29T04:35:47;25.29;50.68
65371;DHT22;58485;59.934;30.352;2022-07-29T04:36:38;25.29;50.62
65371;DHT22;58485;59.934;30.352;2022-07-29T04:37:30;25.29;50.66
65371;DHT22;58485;59.934;30.352;2022-07-29T04:38:21;25.30;50.63
65371;DHT22;58485;59.934;30.352;2022-07-29T04:39:14;25.29;50.63
65371;DHT22;58485;59.934;30.352;2022-07-29T04:40:06;25.29;50.59
65371;DHT22;58485;59.934;30.352;2022-07-29T04:40:58;25.28;50.60
65371;DHT22;58485;59.934;30.352;2022-07-29T04:41:51;25.30;50.59
65371;DHT22;58485;59.934;30.352;2022-07-29T04:42:42;25.28;50.61
65371;DHT22;58485;59.934;30.352;2022-07-29T04:43:35;25.29;50.55
65371;DHT22;58485;59.934;30.352;2022-07-29T04:44:26;25.29;50.58
65371;DHT22;58485;59.934;30.352;2022-07-29T04:45:19;25.28;50.58
65371;DHT22;58485;59.934;30.352;2022-07-29T04:46:10;25.28;50.52
65371;DHT22;58485;59.934;30.352;2022-07-29T04:47:03;25.27;50.58
65371;DHT22;58485;59.934;30.352;2022-07-29T04:47:54;25.28;50.55
65371;DHT22;58485;59.934;30.352;2022-07-29T04:48:48;25.29;50.47
65371;DHT22;58485;59.934;30.352;2022-07-29T04:49:39;25.27;50.59
65371;DHT22;58485;59.934;30.352;2022-07-29T04:50:32;25.29;50.55
65371;DHT22;58485;59.934;30.352;2022-07-29T04:51:23;25.29;50.57
65371;DHT22;58485;59.934;30.352;2022-07-29T04:52:15;25.30;50.59
65371;DHT22;58485;59.934;30.352;2022-07-29T04:53:07;25.28;50.59
65371;DHT22;58485;59.934;30.352;2022-07-29T04:53:59;25.29;50.53
65371;DHT22;58485;59.934;30.352;2022-07-29T04:54:50;25.28;50.55
65371;DHT22;58485;59.934;30.352;2022-07-29T04:55:43;25.28;50.58
65371;DHT22;58485;59.934;30.352;2022-07-29T04:56:35;25.28;50.52
65371;DHT22;58485;59.934;30.352;2022-07-29T04:57:27;25.25;50.55
65371;DHT22;58485;59.934;30.352;2022-07-29T04:58:18;25.24;50.62
65371;DHT22;58485;59.934;30.352;2022-07-29T04:59:11;25.24;50.55
65371;DHT22;58485;59.934;30.352;2022-07-29T05:00:03;25.25;50.60
65371;DHT22;58485;59.934;30.352;2022-07-29T05:00:56;25.23;50.60
65371;DHT22;58485;59.934;30.352;2022-07-29T05:01:48;25.22;50.59
65371;DHT22;58485;59.934;30.352;2022-07-29T05:02:40;25.21;50.57
65371;DHT22;58485;59.934;30.352;2022-07-29T05:03:31;25.21;50.60
65371;DHT22;58485;59.934;30.352;2022-07-29T05:04:25;25.19;50.65
65371;DHT22;58485;59.934;30.352;2022-07-29T05:05:16;25.18;50.66
65371;DHT22;58485;59.934;30.352;2022-07-29T05:06:08;25.18;50.69
65371;DHT22;58485;59.934;30.352;2022-07-29T05:06:59;25.18;50.67
65371;DHT22;58485;59.934;30.352;2022-07-29T05:07:52;25.19;50.65
65371;DHT22;58485;59.934;30.352;2022-07-29T05:08:43;25.18;50.66
65371;DHT22;58485;59.934;30.352;2022-07-29T05:09:35;25.18;50.68
65371;DHT22;58485;59.934;30.352;2022-07-29T05:10:27;25.20;50.58
65371;DHT22;58485;59.934;30.352;2022-07-29T05:11:19;25.19;50.66
65371;DHT22;58485;59.934;30.352;2022-07-29T05:12:10;25.19;50.69
65371;DHT22;58485;59.934;30.352;2022-07-29T05:13:03;25.18;50.73
65371;DHT22;58485;59.934;30.352;2022-07-29T05:13:54;25.18;50.63
65371;DHT22;58485;59.934;30.352;2022-07-29T05:14:46;25.19;50.69
65371;DHT22;58485;59.934;30.352;2022-07-29T05:15:38;25.17;50.76
65371;DHT22;58485;59.934;30.352;2022-07-29T05:16:30;25.19;50.76
65371;DHT22;58485;59.934;30.352;2022-07-29T05:17:21;25.19;50.73
65371;DHT22;58485;59.934;30.352;2022-07-29T05:18:14;25.18;50.76
65371;DHT22;58485;59.934;30.352;2022-07-29T05:19:05;25.17;50.70
65371;DHT22;58485;59.934;30.352;2022-07-29T05:19:58;25.17;50.57
65371;DHT22;58485;59.934;30.352;2022-07-29T05:20:50;25.16;50.62
65371;DHT22;58485;59.934;30.352;2022-07-29T05:21:42;25.16;50.69
65371;DHT22;58485;59.934;30.352;2022-07-29T05:22:35;25.15;50.78
65371;DHT22;58485;59.934;30.352;2022-07-29T05:23:27;25.15;50.81
65371;DHT22;58485;59.934;30.352;2022-07-29T05:24:18;25.13;50.72
65371;DHT22;58485;59.934;30.352;2022-07-29T05:25:10;25.13;50.80
65371;DHT22;58485;59.934;30.352;2022-07-29T05:26:02;25.13;50.78
65371;DHT22;58485;59.934;30.352;2022-07-29T05:26:54;25.12;50.80
65371;DHT22;58485;59.934;30.352;2022-07-29T05:27:45;25.13;50.80
65371;DHT22;58485;59.934;30.352;2022-07-29T05:28:37;25.14;50.79
65371;DHT22;58485;59.934;30.352;2022-07-29T05:29:28;25.16;50.68
65371;DHT22;58485;59.934;30.352;2022-07-29T05:30:21;25.14;50.72
65371;DHT22;58485;59.934;30.352;2022-07-29T05:31:12;25.13;50.82
65371;DHT22;58485;59.934;30.352;2022-07-29T05:32:05;25.15;50.69
65371;DHT22;58485;59.934;30.352;2022-07-29T05:32:56;25.12;50.76
65371;DHT22;58485;59.934;30.352;2022-07-29T05:33:49;25.14;50.77
65371;DHT22;58485;59.934;30.352;2022-07-29T05:34:40;25.14;50.63
65371;DHT22;58485;59.934;30.352;2022-07-29T05:35:34;25.15;50.59
65371;DHT22;58485;59.934;30.352;2022-07-29T05:36:27;25.13;50.71